createdAt,value
2022-10-06T00:01:19.688Z,11.98
2022-10-06T00:03:48.630Z,11.98
2022-10-06T00:06:18.554Z,12.00
2022-10-06T00:08:47.558Z,12.01
2022-10-06T00:11:17.609Z,12.01
2022-10-06T00:13:46.075Z,12.03
2022-10-06T00:16:23.762Z,12.04
2022-10-06T00:18:52.315Z,12.04
2022-10-06T00:21:20.662Z,12.04
2022-10-06T00:23:49.071Z,12.04
2022-10-06T00:26:17.705Z,12.02
2022-10-06T00:28:50.362Z,12.01
2022-10-06T00:31:20.013Z,12.04
2022-10-06T00:33:50.011Z,12.06
2022-10-06T00:36:19.013Z,12.06
2022-10-06T00:38:47.909Z,12.08
2022-10-06T00:41:18.486Z,12.10
2022-10-06T00:43:53.917Z,12.11
2022-10-06T00:46:46.637Z,12.12
2022-10-06T00:49:26.430Z,12.11
2022-10-06T00:52:06.038Z,12.11
2022-10-06T00:54:36.456Z,12.09
2022-10-06T00:57:06.869Z,12.09
2022-10-06T00:59:37.401Z,12.11
2022-10-06T01:02:28.968Z,12.13
2022-10-06T01:05:01.050Z,12.13
2022-10-06T01:07:31.747Z,12.14
2022-10-06T01:10:00.236Z,12.16
2022-10-06T01:12:31.938Z,12.16
2022-10-06T01:15:00.722Z,12.14
2022-10-06T01:17:42.525Z,12.12
2022-10-06T01:20:15.851Z,12.11
2022-10-06T01:22:50.697Z,12.09
2022-10-06T01:25:20.755Z,12.10
2022-10-06T01:27:54.090Z,12.09
2022-10-06T01:30:36.666Z,12.10
2022-10-06T01:33:05.906Z,12.09
2022-10-06T01:35:35.117Z,12.07
2022-10-06T01:38:04.593Z,12.07
2022-10-06T01:40:32.976Z,12.06
2022-10-06T01:43:03.081Z,12.05
2022-10-06T01:45:31.803Z,12.03
2022-10-06T01:48:00.693Z,12.04
2022-10-06T01:50:29.276Z,12.04
2022-10-06T01:52:57.859Z,12.05
2022-10-06T01:55:26.955Z,12.04
2022-10-06T01:57:56.866Z,12.06
2022-10-06T02:00:25.961Z,12.07
2022-10-06T02:02:55.416Z,12.08
2022-10-06T02:05:24.234Z,12.07
2022-10-06T02:07:53.945Z,12.05
2022-10-06T02:10:22.851Z,12.04
2022-10-06T02:12:54.997Z,12.02
2022-10-06T02:15:25.294Z,11.99
2022-10-06T02:17:54.847Z,11.99
2022-10-06T02:20:27.925Z,11.96
2022-10-06T02:22:56.316Z,11.95
2022-10-06T02:25:24.898Z,11.95
2022-10-06T02:27:55.597Z,11.93
2022-10-06T02:30:24.111Z,11.92
2022-10-06T02:32:53.642Z,11.90
2022-10-06T02:35:23.109Z,11.90
2022-10-06T02:37:51.806Z,11.92
2022-10-06T02:40:20.993Z,11.92
2022-10-06T02:42:49.587Z,11.91
2022-10-06T02:45:20.115Z,11.89
2022-10-06T02:47:48.701Z,11.88
2022-10-06T02:50:17.375Z,11.88
2022-10-06T02:52:46.973Z,11.86
2022-10-06T02:55:15.606Z,11.85
2022-10-06T02:57:44.247Z,11.83
2022-10-06T03:00:15.362Z,11.81
2022-10-06T03:02:44.075Z,11.78
2022-10-06T03:05:12.674Z,11.73
2022-10-06T03:07:41.153Z,11.68
2022-10-06T03:10:10.043Z,11.66
2022-10-06T03:12:38.809Z,11.64
2022-10-06T03:15:08.909Z,11.62
2022-10-06T03:17:37.329Z,11.58
2022-10-06T03:20:08.179Z,11.59
2022-10-06T03:22:36.528Z,11.60
2022-10-06T03:25:05.152Z,11.61
2022-10-06T03:27:34.120Z,11.62
2022-10-06T03:30:06.736Z,11.63
2022-10-06T03:32:35.688Z,11.63
2022-10-06T03:35:04.858Z,11.62
2022-10-06T03:37:33.880Z,11.62
2022-10-06T03:40:02.667Z,11.61
2022-10-06T03:42:32.475Z,11.60
2022-10-06T03:45:00.962Z,11.61
2022-10-06T03:47:32.489Z,11.64
2022-10-06T03:50:01.509Z,11.66
2022-10-06T03:52:30.498Z,11.65
2022-10-06T03:54:58.918Z,11.65
2022-10-06T03:57:27.450Z,11.64
2022-10-06T03:59:59.979Z,11.63
2022-10-06T04:02:28.728Z,11.57
2022-10-06T04:04:57.309Z,11.55
2022-10-06T04:07:25.917Z,11.55
2022-10-06T04:09:54.427Z,11.55
2022-10-06T04:12:23.537Z,11.58
2022-10-06T04:14:55.354Z,11.60
2022-10-06T04:17:26.409Z,11.63
2022-10-06T04:19:54.766Z,11.67
2022-10-06T04:22:23.180Z,11.70
2022-10-06T04:24:51.661Z,11.72
2022-10-06T04:27:29.648Z,11.72
2022-10-06T04:30:13.555Z,11.69
2022-10-06T04:32:42.477Z,11.67
2022-10-06T04:35:10.932Z,11.69
2022-10-06T04:37:39.645Z,11.66
2022-10-06T04:40:08.987Z,11.67
2022-10-06T04:42:38.179Z,11.71
2022-10-06T04:45:10.769Z,11.73
2022-10-06T04:47:40.749Z,11.73
2022-10-06T04:50:10.414Z,11.73
2022-10-06T04:52:41.259Z,11.71
2022-10-06T04:55:11.326Z,11.74
2022-10-06T04:57:39.916Z,11.73
2022-10-06T05:00:22.950Z,11.74
2022-10-06T05:02:56.136Z,11.73
2022-10-06T05:05:24.837Z,11.74
2022-10-06T05:07:54.782Z,11.74
2022-10-06T05:10:23.241Z,11.71
2022-10-06T05:12:51.750Z,11.76
2022-10-06T05:15:20.473Z,11.76
2022-10-06T05:17:49.040Z,11.76
2022-10-06T05:20:18.146Z,11.78
2022-10-06T05:22:47.272Z,11.76
2022-10-06T05:25:15.900Z,11.84
2022-10-06T05:27:44.483Z,11.91
2022-10-06T05:30:12.956Z,12.00
2022-10-06T05:32:41.290Z,12.09
2022-10-06T05:35:09.736Z,12.10
2022-10-06T05:37:38.220Z,12.17
2022-10-06T05:40:07.669Z,12.22
2022-10-06T05:42:36.035Z,12.27
2022-10-06T05:45:04.952Z,12.31
2022-10-06T05:47:34.519Z,12.32
2022-10-06T05:50:03.908Z,12.35
2022-10-06T05:52:32.270Z,12.40
2022-10-06T05:55:00.669Z,12.44
2022-10-06T05:57:29.367Z,12.50
2022-10-06T05:59:58.104Z,12.59
2022-10-06T06:02:27.718Z,12.70
2022-10-06T06:04:56.283Z,12.84
2022-10-06T06:07:24.634Z,12.98
2022-10-06T06:09:54.128Z,13.19
2022-10-06T06:12:23.408Z,13.34
2022-10-06T06:15:14.539Z,13.41
2022-10-06T06:17:50.826Z,13.46
2022-10-06T06:20:20.157Z,13.52
2022-10-06T06:22:53.738Z,13.54
2022-10-06T06:25:24.852Z,13.60
2022-10-06T06:27:56.195Z,13.62
2022-10-06T06:30:25.587Z,13.65
2022-10-06T06:32:59.774Z,13.68
2022-10-06T06:35:28.444Z,13.70
2022-10-06T06:37:59.664Z,13.79
2022-10-06T06:40:28.693Z,13.82
2022-10-06T06:42:57.568Z,13.89
2022-10-06T06:46:16.805Z,13.95
2022-10-06T06:49:04.550Z,14.04
2022-10-06T06:51:40.537Z,14.08
2022-10-06T06:54:11.352Z,14.03
2022-10-06T06:56:43.040Z,14.06
2022-10-06T06:59:13.656Z,14.06
2022-10-06T07:01:49.426Z,14.12
2022-10-06T07:04:21.609Z,14.17
2022-10-06T07:06:59.053Z,14.25
2022-10-06T07:09:30.600Z,14.31
2022-10-06T07:12:11.661Z,14.32
2022-10-06T07:15:03.842Z,14.34
2022-10-06T07:17:54.682Z,14.41
2022-10-06T07:20:42.227Z,14.38
2022-10-06T07:23:36.301Z,14.39
2022-10-06T07:26:07.424Z,14.44
2022-10-06T07:28:36.080Z,14.48
2022-10-06T07:31:05.306Z,14.50
2022-10-06T07:33:34.409Z,14.53
2022-10-06T07:36:05.941Z,14.57
2022-10-06T07:38:44.033Z,14.64
2022-10-06T07:41:19.480Z,14.70
2022-10-06T07:43:57.276Z,14.77
2022-10-06T07:46:28.204Z,14.79
2022-10-06T07:49:04.340Z,14.87
2022-10-06T07:51:32.887Z,14.93
2022-10-06T07:54:03.035Z,15.02
2022-10-06T07:57:20.666Z,15.07
2022-10-06T07:59:48.988Z,15.09
2022-10-06T08:02:20.075Z,15.13
2022-10-06T08:04:48.572Z,15.17
2022-10-06T08:07:17.054Z,15.20
2022-10-06T08:09:45.460Z,15.27
2022-10-06T08:12:32.004Z,15.34
2022-10-06T08:15:07.039Z,15.40
2022-10-06T08:17:36.842Z,15.43
2022-10-06T08:20:09.337Z,15.43
2022-10-06T08:22:38.995Z,15.51
2022-10-06T08:25:10.298Z,15.57
2022-10-06T08:27:40.581Z,15.62
2022-10-06T08:30:11.539Z,15.64
2022-10-06T08:32:43.011Z,15.70
2022-10-06T08:35:11.758Z,15.75
2022-10-06T08:37:40.151Z,15.80
2022-10-06T08:40:14.889Z,15.81
2022-10-06T08:42:48.983Z,15.91
2022-10-06T08:45:38.566Z,15.95
2022-10-06T08:48:20.341Z,16.02
2022-10-06T08:51:06.771Z,16.09
2022-10-06T08:54:04.005Z,16.16
2022-10-06T08:56:54.704Z,16.18
2022-10-06T08:59:23.358Z,16.24
2022-10-06T09:01:54.993Z,16.25
2022-10-06T09:04:28.908Z,16.29
2022-10-06T09:07:06.590Z,16.31
2022-10-06T09:10:11.005Z,16.41
2022-10-06T09:12:55.130Z,16.48
2022-10-06T09:15:35.258Z,16.56
2022-10-06T09:19:06.651Z,16.64
2022-10-06T09:21:42.207Z,16.68
2022-10-06T09:24:33.465Z,16.70
2022-10-06T09:27:16.861Z,16.78
2022-10-06T09:29:48.813Z,16.84
2022-10-06T09:32:19.982Z,16.87
2022-10-06T09:35:02.924Z,16.90
2022-10-06T09:38:09.007Z,16.94
2022-10-06T09:40:39.563Z,16.98
2022-10-06T09:43:34.260Z,17.01
2022-10-06T09:46:28.640Z,17.05
2022-10-06T09:49:07.514Z,17.08
2022-10-06T09:51:38.261Z,17.09
2022-10-06T09:54:17.135Z,17.07
2022-10-06T09:56:47.403Z,17.14
2022-10-06T09:59:40.335Z,17.16
2022-10-06T10:02:41.128Z,17.19
2022-10-06T10:05:23.076Z,17.22
2022-10-06T10:08:22.494Z,17.25
2022-10-06T10:11:30.146Z,17.29
2022-10-06T10:13:59.617Z,17.28
2022-10-06T10:16:34.984Z,17.28
2022-10-06T10:19:05.914Z,17.27
2022-10-06T10:21:35.606Z,17.26
2022-10-06T10:24:20.169Z,17.23
2022-10-06T10:27:05.328Z,17.22
2022-10-06T10:30:11.849Z,17.18
2022-10-06T10:33:09.311Z,17.19
2022-10-06T10:35:47.184Z,17.19
2022-10-06T10:38:20.807Z,17.22
2022-10-06T10:41:10.160Z,17.22
2022-10-06T10:44:09.958Z,17.22
2022-10-06T10:47:08.566Z,17.20
2022-10-06T10:49:39.542Z,17.23
2022-10-06T10:52:20.915Z,17.22
2022-10-06T10:55:29.345Z,17.18
2022-10-06T10:58:07.995Z,17.26
2022-10-06T11:00:42.738Z,17.25
2022-10-06T11:03:17.487Z,17.29
2022-10-06T11:06:18.226Z,17.29
2022-10-06T11:09:32.737Z,17.33
2022-10-06T11:12:29.447Z,17.37
2022-10-06T11:15:19.218Z,17.41
2022-10-06T11:18:01.455Z,17.42
2022-10-06T11:20:49.192Z,17.42
2022-10-06T11:23:44.520Z,17.46
2022-10-06T11:26:45.261Z,17.44
2022-10-06T11:29:51.394Z,17.46
2022-10-06T11:32:26.691Z,17.56
2022-10-06T11:34:55.292Z,17.58
2022-10-06T11:37:49.416Z,17.59
2022-10-06T11:40:56.324Z,17.57
2022-10-06T11:44:04.744Z,17.59
2022-10-06T11:46:49.526Z,17.58
2022-10-06T11:49:29.852Z,17.56
2022-10-06T11:52:08.315Z,17.59
2022-10-06T11:54:40.006Z,17.56
2022-10-06T11:57:29.329Z,17.64
2022-10-06T12:00:05.285Z,17.66
2022-10-06T12:02:40.888Z,17.67
2022-10-06T12:05:54.201Z,17.67
2022-10-06T12:08:03.859Z,17.72
2022-10-06T12:10:35.625Z,17.73
2022-10-06T12:14:01.485Z,17.74
2022-10-06T12:19:42.425Z,17.77
2022-10-06T12:22:25.828Z,17.79
2022-10-06T12:25:17.657Z,17.79
2022-10-06T12:28:21.151Z,17.83
2022-10-06T12:31:25.442Z,17.87
2022-10-06T12:33:54.093Z,17.94
2022-10-06T12:36:31.730Z,18.01
2022-10-06T12:39:29.569Z,18.04
2022-10-06T12:42:17.306Z,18.06
2022-10-06T12:44:50.155Z,18.07
2022-10-06T12:47:33.956Z,18.14
2022-10-06T12:50:27.294Z,18.16
2022-10-06T12:53:14.082Z,18.22
2022-10-06T12:55:51.595Z,18.27
2022-10-06T12:58:32.556Z,18.33
2022-10-06T13:01:04.059Z,18.41
2022-10-06T13:03:32.580Z,18.47
2022-10-06T13:06:04.058Z,18.55
2022-10-06T13:08:41.514Z,18.63
2022-10-06T13:11:14.080Z,18.72
2022-10-06T13:14:13.034Z,18.85
2022-10-06T13:16:47.506Z,18.99
2022-10-06T13:19:36.049Z,19.13
2022-10-06T13:22:04.898Z,19.30
2022-10-06T13:24:33.322Z,19.45
2022-10-06T13:27:03.134Z,19.59
2022-10-06T13:29:32.197Z,19.76
2022-10-06T13:32:02.608Z,19.90
2022-10-06T13:34:35.021Z,20.03
2022-10-06T13:37:03.659Z,20.17
2022-10-06T13:39:32.291Z,20.32
2022-10-06T13:42:20.494Z,20.49
2022-10-06T13:45:02.134Z,20.67
2022-10-06T13:47:30.874Z,20.79
2022-10-06T13:50:06.596Z,20.82
2022-10-06T13:52:47.122Z,20.81
2022-10-06T13:55:18.481Z,20.65
2022-10-06T13:58:08.574Z,20.41
2022-10-06T14:00:51.692Z,20.22
2022-10-06T14:03:28.639Z,20.02
2022-10-06T14:06:21.492Z,19.82
2022-10-06T14:08:57.586Z,19.64
2022-10-06T14:11:30.006Z,19.44
2022-10-06T14:14:03.159Z,19.33
2022-10-06T14:16:32.127Z,19.18
2022-10-06T14:19:06.131Z,19.05
2022-10-06T14:21:42.002Z,18.94
2022-10-06T14:24:16.306Z,18.85
2022-10-06T14:26:46.513Z,18.75
2022-10-06T14:29:14.862Z,18.65
2022-10-06T14:31:44.359Z,18.57
2022-10-06T14:34:15.592Z,18.51
2022-10-06T14:36:51.561Z,18.44
2022-10-06T14:39:20.347Z,18.38
2022-10-06T14:41:48.784Z,18.30
2022-10-06T14:44:17.576Z,18.25
2022-10-06T14:46:48.915Z,18.18
2022-10-06T14:49:17.798Z,18.11
2022-10-06T14:51:46.689Z,18.07
2022-10-06T14:54:15.441Z,18.02
2022-10-06T14:56:44.206Z,17.98
2022-10-06T14:59:17.348Z,17.93
2022-10-06T15:01:47.511Z,17.87
2022-10-06T15:04:24.434Z,17.83
2022-10-06T15:07:11.403Z,17.77
2022-10-06T15:09:39.918Z,17.73
2022-10-06T15:12:08.473Z,17.67
2022-10-06T15:14:40.050Z,17.61
2022-10-06T15:17:08.971Z,17.53
2022-10-06T15:19:37.516Z,17.49
2022-10-06T15:22:09.056Z,17.44
2022-10-06T15:24:37.394Z,17.36
2022-10-06T15:27:25.286Z,17.32
2022-10-06T15:29:54.230Z,17.25
2022-10-06T15:32:22.720Z,17.19
2022-10-06T15:34:52.417Z,17.11
2022-10-06T15:37:20.785Z,17.07
2022-10-06T15:39:49.087Z,17.02
2022-10-06T15:42:20.246Z,16.96
2022-10-06T15:44:50.098Z,16.90
2022-10-06T15:47:18.426Z,16.82
2022-10-06T15:49:47.226Z,16.77
2022-10-06T15:52:17.743Z,16.70
2022-10-06T15:54:48.261Z,16.63
2022-10-06T15:57:20.644Z,16.57
2022-10-06T15:59:49.626Z,16.50
2022-10-06T16:02:20.275Z,16.45
2022-10-06T16:05:40.124Z,16.41
2022-10-06T16:08:08.446Z,16.34
2022-10-06T16:10:36.767Z,16.30
2022-10-06T16:13:05.876Z,16.27
2022-10-06T16:15:34.340Z,16.24
2022-10-06T16:18:02.802Z,16.19
2022-10-06T16:20:31.321Z,16.13
2022-10-06T16:22:59.798Z,16.09
2022-10-06T16:25:28.182Z,16.04
2022-10-06T16:27:56.583Z,16.00
2022-10-06T16:30:24.870Z,15.95
2022-10-06T16:32:53.293Z,15.92
2022-10-06T16:35:21.693Z,15.88
2022-10-06T16:37:50.281Z,15.85
2022-10-06T16:40:18.652Z,15.81
2022-10-06T16:42:47.025Z,15.77
2022-10-06T16:45:15.807Z,15.73
2022-10-06T16:47:44.388Z,15.69
2022-10-06T16:50:12.872Z,15.65
2022-10-06T16:52:41.526Z,15.58
2022-10-06T16:55:10.038Z,15.56
2022-10-06T16:57:38.432Z,15.53
2022-10-06T17:00:07.555Z,15.49
2022-10-06T17:02:36.054Z,15.47
2022-10-06T17:05:05.710Z,15.45
2022-10-06T17:07:34.357Z,15.44
2022-10-06T17:10:19.495Z,15.42
2022-10-06T17:12:49.193Z,15.40
2022-10-06T17:15:17.536Z,15.38
2022-10-06T17:17:46.221Z,15.37
2022-10-06T17:20:16.044Z,15.37
2022-10-06T17:22:44.639Z,15.37
2022-10-06T17:25:14.348Z,15.36
2022-10-06T17:27:43.856Z,15.36
2022-10-06T17:30:12.991Z,15.36
2022-10-06T17:32:41.659Z,15.36
2022-10-06T17:35:10.324Z,15.34
2022-10-06T17:37:40.510Z,15.33
2022-10-06T17:40:09.314Z,15.31
2022-10-06T17:42:37.891Z,15.31
2022-10-06T17:45:06.753Z,15.32
2022-10-06T17:47:37.858Z,15.34
2022-10-06T17:50:14.357Z,15.32
2022-10-06T17:52:43.107Z,15.37
2022-10-06T17:55:12.732Z,15.37
2022-10-06T17:57:41.085Z,15.37
2022-10-06T18:00:11.204Z,15.35
2022-10-06T18:02:42.329Z,15.33
2022-10-06T18:05:11.037Z,15.29
2022-10-06T18:07:40.406Z,15.26
2022-10-06T18:10:29.069Z,15.24
2022-10-06T18:12:58.187Z,15.19
2022-10-06T18:15:27.301Z,15.15
2022-10-06T18:17:56.990Z,15.11
2022-10-06T18:20:30.199Z,15.05
2022-10-06T18:23:01.513Z,15.01
2022-10-06T18:25:31.045Z,14.95
2022-10-06T18:27:59.629Z,14.90
2022-10-06T18:30:29.395Z,14.83
2022-10-06T18:36:12.328Z,14.74
2022-10-06T18:38:45.537Z,14.70
2022-10-06T18:41:19.571Z,14.68
2022-10-06T18:43:48.741Z,14.67
2022-10-06T18:46:37.009Z,14.65
2022-10-06T18:49:12.581Z,14.65
2022-10-06T18:51:49.072Z,14.63
2022-10-06T18:54:22.442Z,14.56
2022-10-06T18:56:53.447Z,14.49
2022-10-06T18:59:28.055Z,14.45
2022-10-06T19:01:56.983Z,14.42
2022-10-06T19:04:25.870Z,14.39
2022-10-06T19:06:55.645Z,14.37
2022-10-06T19:09:25.594Z,14.35
2022-10-06T19:11:56.839Z,14.32
2022-10-06T19:14:30.033Z,14.26
2022-10-06T19:17:01.408Z,14.21
2022-10-06T19:19:31.600Z,14.15
2022-10-06T19:22:02.846Z,14.11
2022-10-06T19:24:36.434Z,14.08
2022-10-06T19:27:12.306Z,14.06
2022-10-06T19:29:50.857Z,14.05
2022-10-06T19:32:24.041Z,14.04
2022-10-06T19:34:52.673Z,14.05
2022-10-06T19:37:21.071Z,14.06
2022-10-06T19:39:50.354Z,14.06
2022-10-06T19:42:38.512Z,14.05
2022-10-06T19:45:08.721Z,14.06
2022-10-06T19:47:37.218Z,14.05
2022-10-06T19:50:11.622Z,14.01
2022-10-06T19:52:42.130Z,13.89
2022-10-06T19:55:10.439Z,13.83
2022-10-06T19:57:38.818Z,13.79
2022-10-06T20:00:08.987Z,13.76
2022-10-06T20:02:44.387Z,13.74
2022-10-06T20:05:14.304Z,13.72
2022-10-06T20:07:45.186Z,13.69
2022-10-06T20:10:14.820Z,13.67
2022-10-06T20:12:43.425Z,13.64
2022-10-06T20:15:13.133Z,13.55
2022-10-06T20:17:42.798Z,13.50
2022-10-06T20:20:11.532Z,13.47
2022-10-06T20:22:40.214Z,13.46
2022-10-06T20:25:08.986Z,13.46
2022-10-06T20:27:37.380Z,13.47
2022-10-06T20:30:07.465Z,13.49
2022-10-06T20:32:35.860Z,13.50
2022-10-06T20:35:05.281Z,13.50
2022-10-06T20:37:33.642Z,13.48
2022-10-06T20:40:20.652Z,13.46
2022-10-06T20:42:54.970Z,13.44
2022-10-06T20:45:23.765Z,13.37
2022-10-06T20:47:52.245Z,13.29
2022-10-06T20:50:21.149Z,13.29
2022-10-06T20:52:49.717Z,13.30
2022-10-06T20:55:18.319Z,13.32
2022-10-06T20:57:48.910Z,13.31
2022-10-06T21:00:18.005Z,13.34
2022-10-06T21:02:46.602Z,13.34
2022-10-06T21:05:15.106Z,13.34
2022-10-06T21:07:44.122Z,13.33
2022-10-06T21:10:12.632Z,13.32
2022-10-06T21:12:40.953Z,13.30
2022-10-06T21:15:10.030Z,13.30
2022-10-06T21:17:39.564Z,13.32
2022-10-06T21:20:08.077Z,13.36
2022-10-06T21:22:36.377Z,13.38
2022-10-06T21:25:05.511Z,13.42
2022-10-06T21:27:34.072Z,13.48
2022-10-06T21:30:03.599Z,13.51
2022-10-06T21:32:32.880Z,13.54
2022-10-06T21:35:01.197Z,13.58
2022-10-06T21:37:29.534Z,13.64
2022-10-06T21:40:02.141Z,13.68
2022-10-06T21:42:31.692Z,13.70
2022-10-06T21:45:00.096Z,13.77
2022-10-06T21:47:28.505Z,13.81
2022-10-06T21:49:56.948Z,13.87
2022-10-06T21:52:25.333Z,13.92
2022-10-06T21:54:53.703Z,13.99
2022-10-06T21:57:22.212Z,14.04
2022-10-06T21:59:50.695Z,14.08
2022-10-06T22:02:19.097Z,14.11
2022-10-06T22:04:47.428Z,14.16
2022-10-06T22:07:16.056Z,14.16
2022-10-06T22:09:44.309Z,14.15
2022-10-06T22:12:12.790Z,14.19
2022-10-06T22:14:41.167Z,14.20
2022-10-06T22:17:09.623Z,14.20
2022-10-06T22:19:37.921Z,14.21
2022-10-06T22:22:06.340Z,14.21
2022-10-06T22:24:34.860Z,14.22
2022-10-06T22:27:04.389Z,14.22
2022-10-06T22:29:32.844Z,14.22
2022-10-06T22:32:01.283Z,14.22
2022-10-06T22:34:29.852Z,14.22
2022-10-06T22:36:58.621Z,14.22
2022-10-06T22:39:26.836Z,14.22
2022-10-06T22:41:55.174Z,14.21
2022-10-06T22:44:23.614Z,14.19
2022-10-06T22:46:52.107Z,14.18
2022-10-06T22:49:20.728Z,14.16
2022-10-06T22:51:48.994Z,14.12
2022-10-06T22:54:19.306Z,14.06
2022-10-06T22:56:47.667Z,14.04
2022-10-06T22:59:16.219Z,14.04
2022-10-06T23:01:44.657Z,14.02
2022-10-06T23:04:13.319Z,14.01
2022-10-06T23:06:41.620Z,13.98
2022-10-06T23:09:10.072Z,13.97
2022-10-06T23:11:38.402Z,13.97
2022-10-06T23:14:06.970Z,13.94
2022-10-06T23:16:35.428Z,13.93
2022-10-06T23:19:03.919Z,13.92
2022-10-06T23:21:32.515Z,13.90
2022-10-06T23:24:01.467Z,13.89
2022-10-06T23:26:31.995Z,13.86
2022-10-06T23:29:01.602Z,13.85
2022-10-06T23:31:30.859Z,13.85
2022-10-06T23:33:59.313Z,13.85
2022-10-06T23:36:28.808Z,13.86
2022-10-06T23:38:57.295Z,13.88
2022-10-06T23:41:25.847Z,13.89
2022-10-06T23:43:54.637Z,13.90
2022-10-06T23:46:23.020Z,13.92
2022-10-06T23:48:51.399Z,13.92
2022-10-06T23:51:20.083Z,13.93
2022-10-06T23:53:48.672Z,13.93
2022-10-06T23:56:19.125Z,13.94
2022-10-06T23:58:47.983Z,13.98
